• Join FlightAware (Why Join?)
  • Login
  • US Flag 
11:52PM EDT


 

Airport Tracker/Info


-or-


 

Live Flight TrackerFlight Track Log ✈ ASQ3268 ✈ 13-May-2013 ✈ KDSM - KIAH

Flight Track Log - Related Links

Times and Time Zones

All times are in EDT time to prevent confusion due to time zone crossing. See the ASQ3268 flight status page for this flight to view local times or setup timezone preferences in your user account.

Time Position Orientation Groundspeed Altitude Reporting Facility
EDT Latitude Longitude Course Direction KTS MPH feet Rate Location/Type
06:59AM 41.5231 -93.6794 203° Southwest 154 177 1,800  Level Minneapolis Center
07:00AM 41.4925 -93.7247 228° Southwest 172 198 3,400 1,920 Climbing Minneapolis Center
07:01AM 41.4133 -93.7256 180° South 244 281 5,700 2,040 Climbing Minneapolis Center
07:02AM 41.3383 -93.7219 178° South 267 307 8,000 2,400 Climbing Minneapolis Center
07:03AM 41.1633 -93.7767 201° Southwest  Level FlightAware Approximate
07:03AM 41.2517 -93.7442 191° South 292 336 10,600  Level Minneapolis Center
07:04AM 41.0720 -93.8267 203° Southwest  Level FlightAware Approximate
07:04AM 41.1664 -93.7897 202° Southwest 332 382 11,400  Level Minneapolis Center
07:05AM 41.0703 -93.8381 201° Southwest 364 419 13,400 1,800 Climbing Minneapolis Center
07:06AM 40.9731 -93.8889 202° Southwest 375 432 15,100 1,500 Climbing Minneapolis Center
07:07AM 40.8722 -93.9419 202° Southwest 388 447 16,500 1,260 Climbing Minneapolis Center
07:08AM 40.7689 -93.9956 201° Southwest 396 456 17,700 1,140 Climbing Minneapolis Center
07:09AM 40.6600 -94.0511 201° Southwest 408 470 18,800 1,140 Climbing Minneapolis Center
07:10AM 40.5500 -94.1064 201° Southwest 416 479 20,000 1,140 Climbing Minneapolis Center
07:11AM 40.4381 -94.1636 201° Southwest 424 488 21,200 1,260 Climbing Minneapolis Center
07:12AM 40.3733 -94.1961 201° Southwest 435 501 22,100 1,560 Climbing Kansas City Center
07:13AM 40.2417 -94.2639 201° Southwest 438 504 23,800 1,440 Climbing Kansas City Center
07:14AM 40.1297 -94.3189 201° Southwest 444 511 25,100 1,320 Climbing Kansas City Center
07:15AM 40.0197 -94.3725 200° South 440 506 26,500 1,260 Climbing Kansas City Center
07:16AM 39.9119 -94.4275 201° Southwest 436 502 27,700 1,200 Climbing Kansas City Center
07:17AM 39.7850 -94.4903 201° Southwest 435 501 29,000 1,200 Climbing Kansas City Center
07:18AM 39.6750 -94.5456 201° Southwest 439 505 30,200 1,200 Climbing Kansas City Center
07:19AM 39.5661 -94.5997 201° Southwest 438 504 31,500 1,260 Climbing Kansas City Center
07:20AM 39.4392 -94.6628 201° Southwest 436 502 32,800 1,080 Climbing Kansas City Center
07:21AM 39.3392 -94.7394 211° Southwest 433 498 33,800 900 Climbing Kansas City Center
07:22AM 39.2431 -94.8214 213° Southwest 432 497 34,700 840 Climbing Kansas City Center
07:23AM 39.1292 -94.9208 214° Southwest 436 502 35,600 600 Climbing Kansas City Center
07:24AM 39.0314 -95.0053 214° Southwest 435 501 36,000 180 Climbing Kansas City Center
07:25AM 38.9181 -95.0686 204° Southwest 462 532 36,000  Level Kansas City Center
07:26AM 38.7942 -95.1100 195° South 478 550 36,000  Level Kansas City Center
07:27AM 38.6444 -95.1586 194° South 494 568 36,000  Level Kansas City Center
07:28AM 38.5117 -95.2039 195° South 513 590 36,000  Level Kansas City Center
07:29AM 38.3786 -95.2475 194° South 514 592 36,000  Level Kansas City Center
07:30AM 38.2239 -95.2983 194° South 514 592 36,000  Level Kansas City Center
07:31AM 38.0911 -95.3397 194° South 513 590 36,000  Level Kansas City Center
07:32AM 37.9586 -95.3839 195° South 514 592 36,000  Level Kansas City Center
07:33AM 37.8089 -95.4294 194° South 509 586 36,000  Level Kansas City Center
07:34AM 37.6700 -95.4736 194° South 511 588 36,000  Level Kansas City Center
07:35AM 37.5319 -95.5172 194° South 510 587 36,000  Level Kansas City Center
07:36AM 37.3947 -95.5614 194° South 508 585 36,000  Level Kansas City Center
07:37AM 37.2569 -95.6053 194° South 509 586 36,000  Level Kansas City Center
07:38AM 37.1197 -95.6475 194° South 508 585 36,000  Level Kansas City Center
07:39AM 36.9819 -95.6914 194° South 510 587 36,000  Level Kansas City Center
07:40AM 36.8464 -95.7333 194° South 507 583 36,000  Level Kansas City Center
07:41AM 36.6839 -95.7847 194° South 505 581 36,000  Level Kansas City Center
07:42AM 36.5478 -95.8269 194° South 506 582 36,000  Level Kansas City Center
07:43AM 36.4125 -95.8692 194° South 507 583 36,000  Level Kansas City Center
07:44AM 36.2781 -95.9094 194° South 504 580 36,000  Level Kansas City Center
07:45AM 36.1419 -95.9503 194° South 505 581 36,000  Level Kansas City Center
07:47AM 36.0067 -95.9906 194° South 503 579 36,000  Level Kansas City Center
07:48AM 35.8711 -96.0306 193° South 502 578 36,000  Level Kansas City Center
07:49AM 35.7314 -96.0739 194° South 502 578 36,000  Level Kansas City Center
07:49AM 35.6164 -96.1114 195° South 506 582 36,000  Level Fort Worth Center
07:50AM 35.4811 -96.1517 194° South 506 582 36,000  Level Fort Worth Center
07:51AM 35.3522 -96.1892 193° South 500 575 36,000  Level Fort Worth Center
07:52AM 35.2214 -96.2294 194° South 489 563 36,000  Level Fort Worth Center
07:53AM 35.0903 -96.2692 194° South 489 563 36,000  Level Fort Worth Center
07:54AM 34.9614 -96.3089 194° South 489 563 36,000  Level Fort Worth Center
07:55AM 34.8322 -96.3436 192° South 483 556 36,000  Level Fort Worth Center
07:56AM 34.7053 -96.3831 194° South 483 556 36,000  Level Fort Worth Center
07:57AM 34.5742 -96.4225 194° South 483 556 36,000  Level Fort Worth Center
07:58AM 34.4472 -96.4592 193° South 478 550 36,000  Level Fort Worth Center
07:59AM 34.3203 -96.4956 193° South 473 544 36,000  Level Fort Worth Center
08:00AM 34.1975 -96.5322 194° South 468 539 36,000  Level Fort Worth Center
08:01AM 34.0703 -96.5686 193° South 468 539 36,000  Level Fort Worth Center
08:02AM 33.9475 -96.6047 194° South 468 539 36,000  Level Fort Worth Center
08:03AM 33.8475 -96.6331 193° South 468 539 36,000  Level Fort Worth Center
08:04AM 33.7058 -96.6744 194° South 452 520 36,000  Level Fort Worth Center
08:05AM 33.5808 -96.7103 193° South 452 520 36,000  Level Fort Worth Center
08:06AM 33.4533 -96.7089 179° South 461 531 36,000  Level Fort Worth Center
08:07AM 33.3281 -96.7000 177° South 461 531 36,000  Level Fort Worth Center
08:08AM 33.2008 -96.6861 175° South 461 531 36,000  Level Fort Worth Center
08:09AM 33.0839 -96.6747 175° South 469 540 36,000  Level Fort Worth Center
08:10AM 32.9458 -96.6583 174° South 469 540 36,000  Level Fort Worth Center
08:11AM 32.8331 -96.6494 176° South 459 528 36,000  Level Fort Worth Center
08:12AM 32.6994 -96.6358 175° South 453 521 36,000  Level Fort Worth Center
08:13AM 32.5889 -96.6244 175° South 443 510 36,000  Level Fort Worth Center
08:14AM 32.4550 -96.6108 175° South 443 510 36,000  Level Fort Worth Center
08:15AM 32.3422 -96.5994 175° South 443 510 36,000  Level Fort Worth Center
08:16AM 32.2336 -96.5881 175° South 443 510 36,000  Level Fort Worth Center
08:17AM 32.1042 -96.5747 175° South 437 503 36,000  Level Fort Worth Center
08:18AM 31.9808 -96.5611 175° South 442 509 36,000 -120 Level Fort Worth Center
08:19AM 31.8597 -96.5500 176° South 442 509 35,800 -1,140 Descending Fort Worth Center
08:20AM 31.7258 -96.5367 175° South 442 509 33,800 -1,980 Descending Fort Worth Center
08:21AM 31.5908 -96.5231 175° South 439 505 31,600 -1,320 Descending Houston Center
08:22AM 31.4703 -96.4975 170° South 435 501 31,000 -780 Descending Houston Center
08:23AM 31.3547 -96.4300 153° Southeast 452 520 30,100 -1,440 Descending Houston Center
08:24AM 31.2367 -96.3544 151° Southeast 466 536 28,100 -2,040 Descending Houston Center
08:26AM 31.1183 -96.2803 152° Southeast 472 543 26,000 -2,220 Descending Houston Center
08:27AM 31.0000 -96.2047 151° Southeast 476 548 23,600 -2,400 Descending Houston Center
08:28AM 30.8869 -96.1344 152° Southeast 463 533 21,100 -2,460 Descending Houston Center
08:29AM 30.7833 -96.0703 152° Southeast 432 497 18,600 -2,460 Descending Houston Center
08:29AM 30.7372 -96.0414 152° Southeast 416 479 17,700 -2,280 Descending Houston Center
08:30AM 30.6769 -96.0033 151° Southeast 416 479 16,300 -2,460 Descending Houston Center
08:30AM 30.6394 -95.9797 152° Southeast 393 452 15,200 -2,520 Descending Houston Center
08:31AM 30.5844 -95.9450 151° Southeast 395 455 13,700 -2,580 Descending Houston Center
08:31AM 30.5422 -95.9206 153° Southeast 380 437 12,600 -1,680 Descending Houston Center
08:32AM 30.4931 -95.8864 149° Southeast 380 437 12,000 -600 Descending Houston Center
08:32AM 30.4531 -95.8606 151° Southeast 374 430 12,000 -240 Level Houston Center
08:33AM 30.4086 -95.8186 141° Southeast 372 428 11,800 -900 Descending Houston Center
08:33AM 30.3725 -95.7803 138° Southeast 367 422 11,100 -1,380 Descending Houston Center
08:34AM 30.3336 -95.7386 137° Southeast 367 422 10,400 -900 Descending Houston Center
08:34AM 30.2983 -95.7019 138° Southeast 326 375 10,200 -720 Descending Houston Center
08:35AM 30.2672 -95.6700 138° Southeast 330 380 9,700 -1,260 Descending Houston Center
08:35AM 30.2383 -95.6389 137° Southeast 285 328 8,900 -1,920 Descending Houston Center
08:36AM 30.1989 -95.5981 138° Southeast 284 327 7,800 -1,620 Descending Houston Center
08:36AM 30.1806 -95.5806 140° Southeast 272 313 7,300 -1,560 Descending Houston Center
08:37AM 30.1439 -95.5408 137° Southeast 271 312 6,200 -1,320 Descending Houston Center
08:37AM 30.1250 -95.5219 139° Southeast 262 302 6,000 -240 Descending Houston Center
08:38AM 30.1053 -95.4744 116° Southeast 261 300 6,000  Level Houston Center
08:38AM 30.1050 -95.4422 91° East 261 300 6,000  Level Houston Center
08:39AM 30.1064 -95.3900 88° East 263 303 6,000  Level Houston Center
08:39AM 30.1058 -95.3575 91° East 260 299 6,000  Level Houston Center
08:40AM 30.1044 -95.2756 91° East 257 296 6,000 -240 Level Houston Center
08:41AM 30.1050 -95.2303 89° East 241 277 5,600 -1,020 Descending Houston Center
08:41AM 30.1061 -95.2006 88° East 216 249 5,000 -1,320 Descending Houston Center
08:42AM 30.0994 -95.1631 102° East 223 257 4,300 -1,320 Descending Houston Center
08:42AM 30.0725 -95.1564 168° South 222 255 3,700 -1,260 Descending Houston Center
08:43AM 30.0397 -95.1592 184° South 223 257 3,000 -1,320 Descending Houston Center
08:43AM 30.0225 -95.1842 231° Southwest 216 249 2,400 -1,140 Descending Houston Center
08:44AM 30.0069 -95.2261 247° West 206 237 1,900 -720 Descending Houston Center
08:44AM 30.0089 -95.2389 280° West 168 193 1,700 -720 Descending Houston Center